createdAt,value
2018-10-11T00:01:20.017Z,14.00
2018-10-11T00:05:23.782Z,13.90
2018-10-11T00:09:27.531Z,13.90
2018-10-11T00:13:31.264Z,13.80
2018-10-11T00:17:34.989Z,13.80
2018-10-11T00:21:39.202Z,13.70
2018-10-11T00:25:42.962Z,13.70
2018-10-11T00:29:46.724Z,13.60
2018-10-11T00:33:50.449Z,13.60
2018-10-11T00:37:54.256Z,13.50
2018-10-11T00:41:58.082Z,13.50
2018-10-11T00:46:01.813Z,13.50
2018-10-11T00:50:05.585Z,13.40
2018-10-11T00:54:09.565Z,13.30
2018-10-11T00:58:13.310Z,13.30
2018-10-11T01:02:17.018Z,13.30
2018-10-11T01:06:20.757Z,13.30
2018-10-11T01:10:24.553Z,13.30
2018-10-11T01:14:28.375Z,13.30
2018-10-11T01:18:32.205Z,13.30
2018-10-11T01:22:35.899Z,13.30
2018-10-11T01:26:39.742Z,13.30
2018-10-11T01:30:48.719Z,13.30
2018-10-11T01:34:52.465Z,13.30
2018-10-11T01:38:56.305Z,13.20
2018-10-11T01:43:04.654Z,13.20
2018-10-11T01:47:08.505Z,13.10
2018-10-11T01:51:12.325Z,13.10
2018-10-11T01:55:16.069Z,13.00
2018-10-11T01:59:19.784Z,13.00
2018-10-11T02:03:23.545Z,12.90
2018-10-11T02:07:27.237Z,12.90
2018-10-11T02:11:30.966Z,12.80
2018-10-11T02:15:34.686Z,12.70
2018-10-11T02:19:38.446Z,12.70
2018-10-11T02:23:42.286Z,12.60
2018-10-11T02:27:45.998Z,12.60
2018-10-11T02:31:49.757Z,12.60
2018-10-11T02:35:53.532Z,12.50
2018-10-11T02:39:57.413Z,12.40
2018-10-11T02:44:01.216Z,12.40
2018-10-11T02:48:05.547Z,12.40
2018-10-11T02:52:09.321Z,12.40
2018-10-11T02:56:13.349Z,12.30
2018-10-11T03:00:17.158Z,12.30
2018-10-11T03:04:21.013Z,12.20
2018-10-11T03:08:25.930Z,12.20
2018-10-11T03:12:29.684Z,12.10
2018-10-11T03:16:33.418Z,12.10
2018-10-11T03:20:37.178Z,12.10
2018-10-11T03:24:41.193Z,12.10
2018-10-11T03:28:44.909Z,12.00
2018-10-11T03:32:48.623Z,12.00
2018-10-11T03:36:52.373Z,12.00
2018-10-11T03:40:56.102Z,12.00
2018-10-11T03:44:59.833Z,12.00
2018-10-11T03:49:03.556Z,12.00
2018-10-11T03:53:07.356Z,12.00
2018-10-11T03:57:13.278Z,11.90
2018-10-11T04:01:18.626Z,11.90
2018-10-11T04:05:22.400Z,11.80
2018-10-11T04:09:26.108Z,11.80
2018-10-11T04:13:29.909Z,11.80
2018-10-11T04:17:33.737Z,11.70
2018-10-11T04:21:37.468Z,11.70
2018-10-11T04:25:41.194Z,11.70
2018-10-11T04:29:44.927Z,11.70
2018-10-11T04:33:48.633Z,11.60
2018-10-11T04:37:52.398Z,11.60
2018-10-11T04:41:56.221Z,11.60
2018-10-11T04:45:59.949Z,11.60
2018-10-11T04:50:03.681Z,11.50
2018-10-11T04:54:07.442Z,11.50
2018-10-11T04:58:11.219Z,11.50
2018-10-11T05:02:14.983Z,11.40
2018-10-11T05:06:18.747Z,11.40
2018-10-11T05:10:22.493Z,11.30
2018-10-11T05:14:26.442Z,11.30
2018-10-11T05:18:30.324Z,11.30
2018-10-11T05:22:34.090Z,11.20
2018-10-11T05:26:37.876Z,11.20
2018-10-11T05:30:43.885Z,11.20
2018-10-11T05:34:47.771Z,11.10
2018-10-11T05:38:51.548Z,11.10
2018-10-11T05:42:55.363Z,11.10
2018-10-11T05:46:59.312Z,11.10
2018-10-11T05:51:04.606Z,11.10
2018-10-11T05:55:08.393Z,11.00
2018-10-11T05:59:12.482Z,11.00
2018-10-11T06:03:16.264Z,11.00
2018-10-11T06:07:20.110Z,11.00
2018-10-11T06:11:23.940Z,10.90
2018-10-11T06:15:27.730Z,10.90
2018-10-11T06:19:31.546Z,10.90
2018-10-11T06:23:35.359Z,10.90
2018-10-11T06:27:39.179Z,10.90
2018-10-11T06:31:43.060Z,10.90
2018-10-11T06:35:46.996Z,10.90
2018-10-11T06:39:50.842Z,10.90
2018-10-11T06:43:54.669Z,10.90
2018-10-11T06:48:00.461Z,11.00
2018-10-11T06:52:04.262Z,11.00
2018-10-11T06:56:07.959Z,11.10
2018-10-11T07:00:11.795Z,11.10
2018-10-11T07:04:15.502Z,11.10
2018-10-11T07:08:19.324Z,11.20
2018-10-11T07:12:23.118Z,11.20
2018-10-11T07:16:26.834Z,11.30
2018-10-11T07:20:30.599Z,11.40
2018-10-11T07:24:34.411Z,11.50
2018-10-11T07:28:38.212Z,11.50
2018-10-11T07:32:41.915Z,11.60
2018-10-11T07:36:45.610Z,11.70
2018-10-11T07:40:49.453Z,11.80
2018-10-11T07:44:53.177Z,11.90
2018-10-11T07:48:56.882Z,12.00
2018-10-11T07:53:00.649Z,12.10
2018-10-11T07:57:04.712Z,12.20
2018-10-11T08:01:08.498Z,12.30
2018-10-11T08:05:12.352Z,12.40
2018-10-11T08:09:16.112Z,12.50
2018-10-11T08:13:19.909Z,12.60
2018-10-11T08:17:23.988Z,12.70
2018-10-11T08:21:27.351Z,12.90
2018-10-11T08:25:31.370Z,13.00
2018-10-11T08:29:34.900Z,13.20
2018-10-11T08:33:38.631Z,13.40
2018-10-11T08:37:42.447Z,13.50
2018-10-11T08:41:46.127Z,13.80
2018-10-11T08:45:49.851Z,14.00
2018-10-11T08:49:53.633Z,14.20
2018-10-11T08:54:01.579Z,14.50
2018-10-11T08:58:05.391Z,14.70
2018-10-11T09:02:09.410Z,14.80
2018-10-11T09:06:13.129Z,15.00
2018-10-11T09:10:16.861Z,15.10
2018-10-11T09:14:20.585Z,15.30
2018-10-11T09:18:24.399Z,15.50
2018-10-11T09:22:28.121Z,15.60
2018-10-11T09:26:31.914Z,15.80
2018-10-11T09:30:35.693Z,16.00
2018-10-11T09:34:39.466Z,16.10
2018-10-11T09:38:43.201Z,16.30
2018-10-11T09:42:46.954Z,16.40
2018-10-11T09:46:50.679Z,16.60
2018-10-11T09:50:54.418Z,16.70
2018-10-11T09:54:58.425Z,16.80
2018-10-11T09:59:02.051Z,17.00
2018-10-11T10:03:05.923Z,17.10
2018-10-11T10:07:10.086Z,17.30
2018-10-11T10:11:13.785Z,17.40
2018-10-11T10:15:17.538Z,17.50
2018-10-11T10:19:21.214Z,17.60
2018-10-11T10:23:24.920Z,17.70
2018-10-11T10:27:28.756Z,17.80
2018-10-11T10:31:32.425Z,17.90
2018-10-11T10:35:36.200Z,18.00
2018-10-11T10:39:39.937Z,18.00
2018-10-11T10:43:43.733Z,18.10
2018-10-11T10:47:47.466Z,18.30
2018-10-11T10:51:51.244Z,18.30
2018-10-11T10:55:54.957Z,18.50
2018-10-11T10:59:58.674Z,18.60
2018-10-11T11:04:02.431Z,18.70
2018-10-11T11:08:06.180Z,18.80
2018-10-11T11:12:09.885Z,18.90
2018-10-11T11:16:14.182Z,19.00
2018-10-11T11:20:17.871Z,19.20
2018-10-11T11:24:21.667Z,19.20
2018-10-11T11:28:25.450Z,19.30
2018-10-11T11:32:29.175Z,19.40
2018-10-11T11:36:32.949Z,19.50
2018-10-11T11:40:36.631Z,19.60
2018-10-11T11:44:40.364Z,19.70
2018-10-11T11:48:45.015Z,19.80
2018-10-11T11:52:48.725Z,19.90
2018-10-11T11:56:52.935Z,19.90
2018-10-11T12:00:56.654Z,20.00
2018-10-11T12:05:00.564Z,20.10
2018-10-11T12:09:07.006Z,20.10
2018-10-11T12:13:11.896Z,20.20
2018-10-11T12:17:15.614Z,20.30
2018-10-11T12:21:19.306Z,20.30
2018-10-11T12:25:23.122Z,20.50
2018-10-11T12:29:26.853Z,20.60
2018-10-11T12:33:30.567Z,20.70
2018-10-11T12:37:34.403Z,20.90
2018-10-11T12:41:38.166Z,21.00
2018-10-11T12:45:42.324Z,21.10
2018-10-11T12:49:48.468Z,21.30
2018-10-11T12:53:49.806Z,21.40
2018-10-11T12:57:53.506Z,21.50
2018-10-11T13:01:57.215Z,21.70
2018-10-11T13:06:00.904Z,21.80
2018-10-11T13:10:04.903Z,21.90
2018-10-11T13:14:08.717Z,22.00
2018-10-11T13:18:21.922Z,22.10
2018-10-11T13:22:26.139Z,22.20
2018-10-11T13:26:30.239Z,22.30
2018-10-11T13:30:34.317Z,22.40
2018-10-11T13:34:38.072Z,22.60
2018-10-11T13:38:41.837Z,22.70
2018-10-11T13:42:45.551Z,22.80
2018-10-11T13:46:49.392Z,22.90
2018-10-11T13:50:53.780Z,23.00
2018-10-11T13:54:57.497Z,23.10
2018-10-11T13:59:05.013Z,23.20
2018-10-11T14:03:05.096Z,23.30
2018-10-11T14:07:08.794Z,23.30
2018-10-11T14:11:12.593Z,23.40
2018-10-11T14:15:16.339Z,23.50
2018-10-11T14:19:20.079Z,23.60
2018-10-11T14:23:23.861Z,23.70
2018-10-11T14:27:27.711Z,23.80
2018-10-11T14:31:31.442Z,23.80
2018-10-11T14:35:35.200Z,24.00
2018-10-11T14:39:38.950Z,24.10
2018-10-11T14:43:42.717Z,24.40
2018-10-11T14:47:46.451Z,24.70
2018-10-11T14:51:50.204Z,25.10
2018-10-11T14:55:54.006Z,25.30
2018-10-11T14:59:57.829Z,25.50
2018-10-11T15:04:01.575Z,25.50
2018-10-11T15:08:05.304Z,25.60
2018-10-11T15:12:09.053Z,25.50
2018-10-11T15:16:12.821Z,25.40
2018-10-11T15:20:16.547Z,25.30
2018-10-11T15:24:20.290Z,25.10
2018-10-11T15:28:23.978Z,24.90
2018-10-11T15:32:27.710Z,24.60
2018-10-11T15:36:32.646Z,24.40
2018-10-11T15:40:36.472Z,24.10
2018-10-11T15:44:40.199Z,23.90
2018-10-11T15:48:43.883Z,23.70
2018-10-11T15:52:47.602Z,23.50
2018-10-11T15:56:51.365Z,23.40
2018-10-11T16:00:55.106Z,23.20
2018-10-11T16:04:58.829Z,23.00
2018-10-11T16:09:02.637Z,22.80
2018-10-11T16:13:06.337Z,22.60
2018-10-11T16:17:10.098Z,22.40
2018-10-11T16:21:13.835Z,22.20
2018-10-11T16:25:17.660Z,22.10
2018-10-11T16:29:21.367Z,21.90
2018-10-11T16:33:25.134Z,21.80
2018-10-11T16:37:28.947Z,21.50
2018-10-11T16:41:32.670Z,21.30
2018-10-11T16:45:36.441Z,21.20
2018-10-11T16:49:40.130Z,21.00
2018-10-11T16:53:43.901Z,20.90
2018-10-11T16:57:47.633Z,20.80
2018-10-11T17:01:51.419Z,20.60
2018-10-11T17:05:55.168Z,20.40
2018-10-11T17:09:58.997Z,20.30
2018-10-11T17:14:02.663Z,20.20
2018-10-11T17:18:06.590Z,20.00
2018-10-11T17:22:10.384Z,19.80
2018-10-11T17:26:14.324Z,19.70
2018-10-11T17:30:18.271Z,19.50
2018-10-11T17:34:22.004Z,19.40
2018-10-11T17:38:25.765Z,19.30
2018-10-11T17:42:29.521Z,19.10
2018-10-11T17:46:33.602Z,19.00
2018-10-11T17:50:37.332Z,18.90
2018-10-11T17:54:45.276Z,18.80
2018-10-11T17:58:49.018Z,18.70
2018-10-11T18:02:52.767Z,18.60
2018-10-11T18:06:56.535Z,18.50
2018-10-11T18:11:00.329Z,18.30
2018-10-11T18:15:04.084Z,18.20
2018-10-11T18:19:07.946Z,18.10
2018-10-11T18:23:11.654Z,18.00
2018-10-11T18:27:15.373Z,17.90
2018-10-11T18:31:19.068Z,17.80
2018-10-11T18:35:22.934Z,17.70
2018-10-11T18:39:26.682Z,17.60
2018-10-11T18:43:30.671Z,17.50
2018-10-11T18:47:34.464Z,17.50
2018-10-11T18:51:38.300Z,17.40
2018-10-11T18:55:42.027Z,17.30
2018-10-11T18:59:45.798Z,17.20
2018-10-11T19:03:49.501Z,17.20
2018-10-11T19:07:53.258Z,17.10
2018-10-11T19:11:56.979Z,17.10
2018-10-11T19:16:00.713Z,17.00
2018-10-11T19:20:04.560Z,17.00
2018-10-11T19:24:08.437Z,16.90
2018-10-11T19:28:12.146Z,16.90
2018-10-11T19:32:15.848Z,16.80
2018-10-11T19:36:19.625Z,16.70
2018-10-11T19:40:23.382Z,16.60
2018-10-11T19:44:27.102Z,16.60
2018-10-11T19:48:30.909Z,16.50
2018-10-11T19:52:34.637Z,16.40
2018-10-11T19:56:38.360Z,16.30
2018-10-11T20:00:42.134Z,16.20
2018-10-11T20:04:45.860Z,16.20
2018-10-11T20:08:49.586Z,16.10
2018-10-11T20:12:53.271Z,16.10
2018-10-11T20:16:56.985Z,16.00
2018-10-11T20:21:00.695Z,16.00
2018-10-11T20:25:04.511Z,15.90
2018-10-11T20:29:08.270Z,15.90
2018-10-11T20:33:11.978Z,15.80
2018-10-11T20:37:15.731Z,15.80
2018-10-11T20:41:19.437Z,15.80
2018-10-11T20:45:23.165Z,15.70
2018-10-11T20:49:26.950Z,15.70
2018-10-11T20:53:30.671Z,15.60
2018-10-11T20:57:34.397Z,15.60
2018-10-11T21:01:38.143Z,15.60
2018-10-11T21:05:41.911Z,15.60
2018-10-11T21:09:45.618Z,15.60
2018-10-11T21:13:49.364Z,15.60
2018-10-11T21:17:53.101Z,15.60
2018-10-11T21:21:56.926Z,15.60
2018-10-11T21:26:00.812Z,15.60
2018-10-11T21:30:04.583Z,15.60
2018-10-11T21:34:08.331Z,15.60
2018-10-11T21:38:12.102Z,15.60
2018-10-11T21:42:15.903Z,15.60
2018-10-11T21:46:19.802Z,15.60
2018-10-11T21:50:23.485Z,15.60
2018-10-11T21:54:27.234Z,15.60
2018-10-11T21:58:30.941Z,15.50
2018-10-11T22:02:34.657Z,15.50
2018-10-11T22:06:38.488Z,15.50
2018-10-11T22:10:42.270Z,15.40
2018-10-11T22:14:46.116Z,15.40
2018-10-11T22:18:49.861Z,15.30
2018-10-11T22:22:53.601Z,15.30
2018-10-11T22:26:57.313Z,15.30
2018-10-11T22:31:00.985Z,15.20
2018-10-11T22:35:04.815Z,15.20
2018-10-11T22:39:10.602Z,15.20
2018-10-11T22:43:14.393Z,15.10
2018-10-11T22:47:18.209Z,15.10
2018-10-11T22:51:21.999Z,15.10
2018-10-11T22:55:26.627Z,15.00
2018-10-11T22:59:30.439Z,15.00
2018-10-11T23:03:34.152Z,15.00
2018-10-11T23:07:37.881Z,15.00
2018-10-11T23:11:41.574Z,14.90
2018-10-11T23:15:45.278Z,14.90
2018-10-11T23:41:59.152Z,14.60
2018-10-11T23:46:02.901Z,14.60
2018-10-11T23:50:06.739Z,14.60
2018-10-11T23:54:10.454Z,14.60
2018-10-11T23:58:14.145Z,14.50
